Latest Coastal Weather Observations for Devonport Airport

IDV60701

Issued at 11:21 am EDT Tuesday 28 March 2017 (issued every 10 minutes, with the page automatically refreshed every 10 minutes)

About coastal observations | Map of coastal stations | Coastal observations for VIC | Marine services | Other Formats
Station Details ID: 091126 Name: DEVONPORT AIRPORT Lat: -41.17 Lon: 146.43 Height: 8.0 m
Data from the previous 72 hours. | See also: Recent months at Devonport Airport
Date/Time
EDT
Temp
°C
Wind Pressure Rain since
9am
mm
Weather Cloud Vis
km
Sea
Height
m
Swell
Dir  Spd
kts
Gust
kts
hPa Trend Height
m
Period
s
Dir
28/11:00am 17.5 W 15 20 1011.0 - 0.0 - Cloudy 10 - - - -
28/10:30am 17.4 W 14 17 1011.1 - 0.0 - Cloudy 10 - - - -
28/10:00am 16.6 WNW 19 24 1010.9 - 0.0 - Partly cloudy 10 - - - -
28/09:41am 16.5 WNW 15 23 1010.8 - 0.0 - Partly cloudy 10 - - - -
28/09:30am 16.6 WNW 10 13 1010.9 - 0.0 - Partly cloudy 10 - - - -
28/09:00am 16.4 W 13 17 1010.5 - 5.0 - Partly cloudy 10 - - - -
28/08:30am 15.9 WNW 17 21 1010.4 - 5.0 - Partly cloudy 10 - - - -
28/08:00am 15.2 W 12 15 1010.0 - 5.0 - Partly cloudy 10 - - - -
28/07:30am 15.6 WNW 13 19 1009.8 - 5.0 - Partly cloudy 10 - - - -
28/07:00am 15.5 W 15 19 1009.7 - 5.0 - Cloudy 10 - - - -
28/06:30am 15.6 WNW 16 20 1009.4 - 5.0 - Partly cloudy 10 - - - -
28/06:00am 15.6 WNW 14 17 1009.3 - 5.0 - Cloudy 10 - - - -
28/05:30am 15.4 WNW 12 15 1009.2 - 5.0 - Partly cloudy 10 - - - -
28/05:00am 15.0 W 9 12 1008.9 - 5.0 - Partly cloudy 10 - - - -
28/04:30am 14.6 W 13 17 1008.8 - 5.0 - - 10 - - - -
28/04:00am 15.1 W 15 21 1008.6 - 5.0 - Partly cloudy 10 - - - -
28/03:30am 15.2 WNW 15 20 1008.7 - 5.0 - Partly cloudy 10 - - - -
28/03:00am 15.4 WNW 15 19 1008.7 - 5.0 - Mostly cloudy 10 - - - -
28/02:30am 15.0 WNW 14 17 1008.8 - 5.0 - Partly cloudy 10 - - - -
28/02:00am 14.1 WSW 7 11 1008.9 - 5.0 - Partly cloudy 10 - - - -
28/01:30am 13.6 WSW 8 11 1008.8 - 5.0 - Partly cloudy 10 - - - -
28/01:00am 13.7 W 9 11 1008.8 - 5.0 - Partly cloudy 10 - - - -
28/12:30am 13.6 W 9 12 1008.4 - 5.0 - - 10 - - - -
28/12:00am 14.7 W 13 16 1008.3 - 5.0 - - 10 - - - -
 
Date/Time
EDT
Temp
°C
Wind Pressure Rain since
9am
mm
Weather Cloud Vis
km
Sea
Height
m
Swell
Dir  Spd
kts
Gust
kts
hPa Trend Height
m
Period
s
Dir
27/11:30pm 14.5 W 12 15 1008.2 - 5.0 - Partly cloudy 10 - - - -
27/11:00pm 14.8 W 12 16 1008.4 - 5.0 - Partly cloudy 10 - - - -
27/10:30pm 15.3 W 11 17 1007.9 - 5.0 - Partly cloudy 10 - - - -
27/10:00pm 15.4 W 13 18 1007.6 - 5.0 - Partly cloudy 10 - - - -
27/09:30pm 16.0 W 16 21 1007.2 - 5.0 - Partly cloudy 10 - - - -
27/09:00pm 16.4 W 18 25 1006.7 - 5.0 - Mostly clear 10 - - - -
27/08:30pm 17.1 WNW 23 29 1006.3 - 5.0 - Cloudy 10 - - - -
27/08:00pm 17.3 WNW 22 27 1005.9 - 5.0 - Partly cloudy 10 - - - -
27/07:30pm 17.2 WNW 21 29 1005.5 - 5.0 - Partly cloudy 10 - - - -
27/07:00pm 17.3 WNW 19 23 1005.6 - 5.0 - Partly cloudy 10 - - - -
27/06:30pm 17.2 WNW 16 21 1005.4 - 5.0 - Partly cloudy 10 - - - -
27/06:00pm 17.1 WNW 17 23 1005.3 - 5.0 - - 10 - - - -
27/05:30pm 16.4 WNW 21 26 1004.6 - 5.0 - - 10 - - - -
27/05:00pm 16.0 W 20 26 1004.2 - 5.0 - - 10 - - - -
27/04:30pm 15.5 W 25 35 1004.0 - 5.0 - Partly cloudy 10 - - - -
27/04:02pm 15.3 WNW 27 38 1004.0 - 4.4 - Cloudy 9 - - - -
27/04:00pm 15.4 WNW 26 33 1003.3 - 4.4 - Cloudy 9 - - - -
27/03:49pm 15.9 WNW 27 37 1003.1 - 3.8 - Cloudy 10 - - - -
27/03:30pm 16.5 W 28 35 1003.4 - 3.4 - Cloudy 10 - - - -
27/03:00pm 18.4 W 25 33 1002.9 - 2.6 Showers Mostly cloudy 10 - - - -
27/02:41pm 18.9 W 22 32 1002.7 - 2.6 - Partly cloudy 10 - - - -
27/02:30pm 19.3 W 25 33 1002.8 - 2.6 - Partly cloudy 10 - - - -
27/02:23pm 19.4 W 29 42 1002.8 - 2.6 - Partly cloudy 10 - - - -
27/02:19pm 19.5 WNW 30 43 1002.6 - 2.6 - Partly cloudy 10 - - - -
27/02:13pm 19.8 NNW 20 43 1002.0 - 2.6 - Partly cloudy 10 - - - -
27/02:12pm 19.9 NNW 18 43 1001.7 - 2.6 - Partly cloudy 10 - - - -
27/02:11pm 20.1 NNW 16 30 1002.1 - 2.6 - Partly cloudy 10 - - - -
27/02:00pm 20.0 N 10 13 1001.9 - 2.6 - Partly cloudy 10 - - - -
27/01:30pm 20.2 NE 8 10 1002.0 - 2.6 - Cloudy 10 - - - -
27/01:00pm 20.3 SW 2 3 1002.4 - 2.6 - Cloudy 10 - - - -
27/12:30pm 20.2 SSW 3 5 1002.6 - 2.6 - Cloudy 10 - - - -
27/12:00pm 19.6 E 8 14 1002.5 - 2.6 Showers Mostly cloudy 10 - - - -
27/11:36am 19.6 ENE 13 17 1002.7 - 2.0 - Partly cloudy 9 - - - -
27/11:30am 19.7 ENE 11 14 1003.2 - 1.6 - Partly cloudy 10 - - - -
27/11:22am 20.0 ENE 7 10 1004.0 - 1.0 - Partly cloudy 10 - - - -
27/11:11am 20.2 N 5 6 1005.5 - 0.6 - Cloudy 6 - - - -
27/11:00am 20.7 N 4 8 1005.8 - 0.0 - Partly cloudy 10 - - - -
27/10:56am 20.7 NNE 6 10 1005.5 - 0.0 - Partly cloudy 10 - - - -
27/10:30am 20.9 ENE 10 14 1003.5 - 0.0 - Cloudy 10 - - - -
27/10:00am 20.3 E 10 15 1003.9 - 0.0 - Cloudy 10 - - - -
27/09:30am 20.0 ENE 9 11 1005.1 - 0.0 - Cloudy 10 - - - -
27/09:00am 20.0 E 8 12 1005.4 - 0.2 - Cloudy 10 - - - -
27/08:30am 19.6 E 6 9 1006.0 - 0.2 - Cloudy 10 - - - -
27/08:00am 18.2 SSE 6 8 1006.7 - 0.2 - Cloudy 10 - - - -
27/07:30am 18.0 SSE 7 8 1007.3 - 0.2 - Cloudy 10 - - - -
27/07:00am 18.0 SSE 7 8 1007.3 - 0.2 - Cloudy 10 - - - -
27/06:30am 17.4 SSE 4 6 1006.9 - 0.2 - Partly cloudy 10 - - - -
27/06:00am 17.5 S 5 6 1007.8 - 0.2 - Mostly cloudy 10 - - - -
27/05:30am 19.0 E 6 8 1008.2 - 0.2 - Cloudy 10 - - - -
27/05:00am 19.0 ENE 7 9 1008.5 - 0.2 - Cloudy 10 - - - -
27/04:30am 19.0 ENE 8 11 1008.7 - 0.2 - Cloudy 10 - - - -
27/04:00am 18.8 ENE 8 11 1009.1 - 0.2 - Cloudy 10 - - - -
27/03:30am 18.7 ENE 7 10 1009.4 - 0.2 - Cloudy 10 - - - -
27/03:00am 18.4 ENE 7 10 1010.5 - 0.2 - Cloudy 10 - - - -
27/02:30am 18.5 ENE 8 11 1011.2 - 0.2 - Partly cloudy 10 - - - -
27/02:00am 18.5 ENE 9 13 1011.6 - 0.2 - Cloudy 10 - - - -
27/01:30am 18.5 ENE 9 11 1012.2 - 0.2 - Partly cloudy 10 - - - -
27/01:00am 18.7 ENE 11 15 1012.6 - 0.2 - Cloudy 10 - - - -
27/12:30am 18.7 E 6 9 1013.1 - 0.2 - Cloudy 10 - - - -
27/12:00am 18.4 SE 4 5 1013.6 - 0.2 - Cloudy 10 - - - -
 
Date/Time
EDT
Temp
°C
Wind Pressure Rain since
9am
mm
Weather Cloud Vis
km
Sea
Height
m
Swell
Dir  Spd
kts
Gust
kts
hPa Trend Height
m
Period
s
Dir
26/11:30pm 18.4 SE 6 8 1013.8 - 0.2 - Cloudy 10 - - - -
26/11:00pm 18.8 ENE 6 8 1013.9 - 0.2 - Cloudy 10 - - - -
26/10:30pm 18.5 ESE 4 5 1014.2 - 0.2 - Cloudy 10 - - - -
26/10:00pm 18.6 E 4 5 1014.5 - 0.2 - Partly cloudy 10 - - - -
26/09:30pm 18.3 E 4 5 1014.3 - 0.2 - Partly cloudy 10 - - - -
26/09:00pm 18.6 NE 6 8 1014.4 - 0.2 - Cloudy 10 - - - -
26/08:30pm 18.3 NNE 7 9 1014.3 - 0.2 - Partly cloudy 10 - - - -
26/08:15pm 16.6 NNE 5 6 1014.2 - 0.2 - Partly cloudy 10 - - - -
26/08:00pm 16.4 NE 4 5 1014.3 - 0.2 - Partly cloudy 10 - - - -
26/07:30pm 17.3 NE 4 5 1014.0 - 0.2 - Partly cloudy 10 - - - -
26/07:00pm 18.4 N 5 6 1013.8 - 0.2 - - 10 - - - -
26/06:30pm 19.2 NNE 5 7 1013.7 - 0.2 - - 10 - - - -
26/06:00pm 19.6 NNE 5 6 1013.7 - 0.2 - - 10 - - - -
26/05:30pm 19.4 N 6 7 1013.7 - 0.2 - - 10 - - - -
26/05:00pm 19.6 N 6 8 1013.6 - 0.2 - - 10 - - - -
26/04:30pm 19.9 N 7 10 1013.7 - 0.2 - - 10 - - - -
26/04:00pm 20.1 N 6 7 1013.9 - 0.2 - - 10 - - - -
26/03:30pm 20.1 N 8 11 1014.0 - 0.2 - - 10 - - - -
26/03:00pm 19.8 N 8 11 1014.1 - 0.2 - - 10 - - - -
26/02:30pm 19.8 NNW 9 10 1014.4 - 0.2 - - 10 - - - -
26/02:00pm 20.1 NNW 8 10 1014.6 - 0.2 - - 10 - - - -
26/01:30pm 20.1 NNW 9 10 1015.0 - 0.2 - - 10 - - - -
26/01:00pm 20.4 NNW 9 10 1015.3 - 0.2 - - 10 - - - -
26/12:30pm 20.1 N 9 10 1015.4 - 0.2 - - 10 - - - -
26/12:00pm 20.0 N 8 9 1015.6 - 0.2 Recent precip. - 10 - - - -
26/11:30am 20.0 N 8 10 1015.9 - 0.0 - - 10 - - - -
26/11:00am 21.1 S 4 6 1015.8 - 0.0 - - 10 - - - -
26/10:30am 19.5 SSE 7 9 1015.6 - 0.0 - - 10 - - - -
26/10:00am 18.7 SSE 7 9 1015.7 - 0.0 - - 10 - - - -
26/09:30am 17.6 S 10 12 1015.3 - 0.0 - - 10 - - - -
26/09:00am 16.2 SSE 8 11 1015.2 - 1.0 - - 10 - - - -
26/08:30am 14.7 S 9 11 1015.2 - 1.0 - - 10 - - - -
26/08:00am 13.7 SE 5 7 1015.2 - 1.0 - - 10 - - - -
26/07:30am 13.2 SSE 6 9 1014.8 - 1.0 - - 10 - - - -
26/07:00am 12.7 SSE 8 11 1014.3 - 1.0 - - 10 - - - -
26/06:30am 12.7 S 8 11 1013.9 - 1.0 - - 10 - - - -
26/06:00am 12.7 S 7 9 1013.5 - 1.0 - - 10 - - - -
26/05:30am 12.4 S 5 7 1013.6 - 1.0 - - 10 - - - -
26/05:00am 12.9 SSW 4 7 1013.4 - 1.0 - - 10 - - - -
26/04:30am 12.3 SSW 4 5 1013.5 - 1.0 - - 10 - - - -
26/04:00am 13.3 SSE 4 5 1013.4 - 1.0 - - 10 - - - -
26/03:30am 13.7 SSE 3 6 1013.8 - 1.0 - - 10 - - - -
26/03:00am 13.5 S 6 7 1013.9 - 1.0 - - 10 - - - -
26/02:30am 13.7 SSW 5 6 1013.7 - 1.0 - - 10 - - - -
26/02:00am 13.8 SSW 4 6 1013.4 - 1.0 - - 10 - - - -
26/01:30am 14.1 S 6 7 1013.7 - 1.0 - - 10 - - - -
26/01:00am 14.5 SSE 8 10 1013.9 - 1.0 - - 10 - - - -
26/12:30am 14.4 SSE 8 9 1013.8 - 1.0 - - 10 - - - -
26/12:00am 14.7 SSE 7 9 1014.0 - 1.0 - - 10 - - - -
 
Date/Time
EDT
Temp
°C
Wind Pressure Rain since
9am
mm
Weather Cloud Vis
km
Sea
Height
m
Swell
Dir  Spd
kts
Gust
kts
hPa Trend Height
m
Period
s
Dir
25/11:30pm 14.8 SSE 7 9 1014.0 - 1.0 - - 10 - - - -
25/11:22pm 15.2 SSE 7 9 1014.1 - 1.0 - Partly cloudy 10 - - - -
25/11:00pm 15.6 SSE 7 9 1014.0 - 1.0 - Cloudy 10 - - - -
25/10:30pm 15.7 S 7 9 1013.8 - 1.0 - Cloudy 10 - - - -
25/10:00pm 15.8 SSE 7 9 1013.8 - 1.0 - Cloudy 10 - - - -
25/09:42pm 15.4 SSE 6 7 1013.8 - 1.0 - Partly cloudy 10 - - - -
25/09:30pm 15.3 SSE 7 8 1013.7 - 1.0 - Partly cloudy 10 - - - -
25/09:00pm 15.6 S 7 9 1013.5 - 1.0 - Mostly clear 10 - - - -
25/08:30pm 16.3 SSE 7 8 1013.1 - 1.0 - Partly cloudy 10 - - - -
25/08:00pm 16.6 SSE 9 11 1012.9 - 1.0 - Partly cloudy 10 - - - -
25/07:30pm 16.7 SSE 9 11 1012.7 - 1.0 - Partly cloudy 10 - - - -
25/07:00pm 16.7 SSE 8 11 1012.4 - 1.0 - Partly cloudy 10 - - - -
25/06:30pm 16.9 SSE 10 12 1012.3 - 1.0 - Cloudy 10 - - - -
25/06:00pm 16.9 S 9 11 1012.2 - 1.0 - Cloudy 10 - - - -
25/05:30pm 16.8 SSE 9 11 1012.2 - 1.0 - Cloudy 10 - - - -
25/05:00pm 16.8 SSE 9 11 1012.2 - 1.0 - Partly cloudy 10 - - - -
25/04:34pm 16.7 S 8 11 1012.3 - 1.0 - Partly cloudy 10 - - - -
25/04:30pm 16.8 S 8 11 1012.3 - 1.0 - Partly cloudy 10 - - - -
25/04:00pm 16.3 S 9 11 1012.4 - 1.0 - Partly cloudy 10 - - - -
25/03:30pm 16.3 S 8 10 1012.6 - 1.0 - Cloudy 10 - - - -
25/03:00pm 16.4 S 10 12 1012.4 - 1.0 - Cloudy 10 - - - -
25/02:31pm 15.9 SSE 10 13 1012.7 - 1.0 - Partly cloudy 10 - - - -
25/02:30pm 15.9 SSE 10 13 1012.7 - 1.0 - Cloudy 10 - - - -
25/02:00pm 16.0 SSE 8 9 1013.3 - 1.0 - Partly cloudy 10 - - - -
25/01:53pm 15.8 SSE 7 9 1013.4 - 1.0 - Partly cloudy 10 - - - -
25/01:38pm 15.7 SSE 6 7 1013.8 - 0.8 - Partly cloudy 6 - - - -
25/01:30pm 15.5 SSE 6 8 1013.8 - 0.8 - Partly cloudy 8 - - - -
25/01:00pm 15.7 S 8 10 1014.1 - 0.0 - Cloudy 10 - - - -
25/12:30pm 16.7 S 9 11 1014.0 - 0.0 - Cloudy 10 - - - -
25/12:00pm 16.9 SSE 10 13 1014.2 - 0.0 Rain Cloudy 10 - - - -
25/11:30am 16.4 SSE 9 12 1014.9 - 0.0 - Cloudy 10 - - - -

Other Formats:

Comma delimited format used in spreadsheet applications
http://www.bom.gov.au/fwo/IDV60701/IDV60701.95960.axf

JavaScript Object Notation format (JSON) in row-major order
http://www.bom.gov.au/fwo/IDV60701/IDV60701.95960.json